Aeroboteco Virtual Airline

Aeroboteco Virtual Airlines! Uma nuvem a frente.



 INFORMAÇÕES METEOROLÓGICAS
METAR FOR LIMC
ADDS - METARS form results

(1807 UTC 10 December 2018)
Data provider http://aviationweather.gov/metar/data/
 
METAR text: LIMC 101750Z 36008KT CAVOK 05/M02 Q1018 NOSIG
Conditions at: LIMC (MILANO/MALPENSA , IT) observed 1750 UTC 10 December 2018
Temperature: 5.0°C (41°F)
Dewpoint: -2.0°C (28°F) [RH = 60%]
Pressure (altimeter): 30.06 inches Hg (1018.0 mb)
Winds: from the N (360 degrees) at 9 MPH (8 knots; 4.1 m/s)
Visibility: 6 or more miles (10+ km)
Ceiling: ceiling and visibility are OK
Clouds: unknown
Weather: no significant weather observed at this time

METAR text: LIMC 101720Z 01009KT CAVOK 06/M02 Q1018 NOSIG
Conditions at: LIMC (MILANO/MALPENSA , IT) observed 1720 UTC 10 December 2018
Temperature: 6.0°C (43°F)
Dewpoint: -2.0°C (28°F) [RH = 56%]
Pressure (altimeter): 30.06 inches Hg (1018.0 mb)
Winds: from the N (10 degrees) at 10 MPH (9 knots; 4.6 m/s)
Visibility: 6 or more miles (10+ km)
Ceiling: ceiling and visibility are OK
Clouds: unknown
Weather: no significant weather observed at this time

Forecast for: LIMC (MILANO/MALPENSA , IT)
Text: TAF LIMC 101700Z 1018/1124 35006KT CAVOK
Forecast period: 1800 UTC 10 December 2018 to 0000 UTC 12 December 2018
Forecast type: FROM: standard forecast or significant change
Winds: from the N (350 degrees) at 7 MPH (6 knots; 3.1 m/s)
Visibility: 6 or more miles 10+ km)
Ceiling: unknown
Clouds: missing
Weather: NSW  (no significant weather)

 MAPA DO AEROPORTO

 INFORMAÇÕES DA PISTA
Pista 17L Tamanho da pista 12861 ft Largura da pista 197 ft
Elevação da pista 745 ft Ranhura da pista 3094 ft Proa da pista 170
Pista 35R Tamanho da pista 12861 ft Largura da pista 197 ft
Elevação da pista 691 ft Ranhura da pista 0 ft Proa da pista 350
Pista 17R Tamanho da pista 12861 ft Largura da pista 197 ft
Elevação da pista 764 ft Ranhura da pista 0 ft Proa da pista 170
Pista 35L Tamanho da pista 12861 ft Largura da pista 197 ft
Elevação da pista 696 ft Ranhura da pista 1329 ft Proa da pista 350

 FREQUÊNCIAS DO AEROPORTO
Tipo APP Nome MILANO APP Frequência 132.7 MHZ
Tipo ATIS Nome ATIS Frequência 120.025 MHZ
Tipo CLD Nome CLNC DEL Frequência 120.9 MHZ
Tipo DEP Nome MILANO DEP Frequência 126.75 MHZ
Tipo GND Nome GND Frequência 121.9 MHZ
Tipo TWR Nome TWR Frequência 119 MHZ

 AUXÍLIOS DE NAVEGAÇÃO PRÓXIMOS AO AEROPORTO
Tipo VOR-DME Nome Malpensa Frequência 111200 KHZ
Tipo NDB Nome Malpensa Frequência 364 KHZ